»·PEaware :: DAL2722 KSFO-KLAX

DAL2722 :: KSFO-KLAX

FLIGHT INFORMATION

Flight Status: Arrived
Operator:
Delta Air Lines
More flights by this operator :: More flights under this callsign
Pilot: Alfredo R. (12181)
Aircraft: BOEING 737-800
(B738)
More flights by this aircraft type
Origin: KSFO San Francisco Intl
United States
Destination: KLAX Los Angeles Intl
United States
More flights between these airports :: More routes between these airports
Route: SSTIK4 EBAYE BURGL IRNMN2
File this flight plan on PilotEdge
Remarks:
Altitude:
(Current/Filed)
37,000ft
Speed:
(Current/Filed)
425kts
Departed: 31-Oct-18 07:02 PM
Arrived: 31-Oct-18 08:02 PM
Distance/Time
Traveled:
293nm/0:59
Distance/Time
To Go:
Arrived

Flight Plot

Page will automatically refresh every two minutes.

Flight plan parsing failed; only flown route is shown


Map Options




Map Legend


Flown Route
Filed Route
Departure Airport
Arrival Airport
Navaid (VOR, NDB)
Fix

Horizontal Profiles

Position Reports

Time Latitude Longitude Heading Altitude Ground
Speed
31-Oct-18 18:43 37.615762 -122.383204 223 31ft 0kts
31-Oct-18 18:44 37.615762 -122.383204 223 31ft 0kts
31-Oct-18 18:45 37.615762 -122.383204 223 31ft 0kts
31-Oct-18 18:46 37.615762 -122.383204 223 31ft 0kts
31-Oct-18 18:47 37.615763 -122.383204 223 31ft 0kts
31-Oct-18 18:48 37.615766 -122.383200 223 31ft 1kts
31-Oct-18 18:49 37.616212 -122.382724 208 31ft 2kts
31-Oct-18 18:50 37.616023 -122.382423 116 31ft 3kts
31-Oct-18 18:51 37.615496 -122.381187 118 31ft 0kts
31-Oct-18 18:52 37.615496 -122.381186 118 30ft 0kts
31-Oct-18 18:53 37.615496 -122.381186 118 30ft 0kts
31-Oct-18 18:54 37.615496 -122.381186 118 30ft 0kts
31-Oct-18 18:55 37.615496 -122.381186 118 30ft 0kts
31-Oct-18 18:56 37.615496 -122.381186 118 31ft 0kts
31-Oct-18 18:57 37.615489 -122.381170 118 31ft 0kts
31-Oct-18 18:58 37.614572 -122.380996 206 30ft 8kts
31-Oct-18 18:59 37.612014 -122.382688 207 30ft 11kts
31-Oct-18 19:00 37.609313 -122.384728 200 31ft 10kts
31-Oct-18 19:01 37.608481 -122.383902 116 30ft 0kts
31-Oct-18 19:02 37.608480 -122.383900 116 30ft 0kts
31-Oct-18 19:03 37.608476 -122.383891 116 30ft 0kts
31-Oct-18 19:04 37.609230 -122.382035 27 29ft 1kts
31-Oct-18 19:05 37.615104 -122.378211 27 27ft 105kts
31-Oct-18 19:06 37.654086 -122.359595 350 1370ft 161kts
31-Oct-18 19:07 37.697430 -122.381381 279 2930ft 195kts
31-Oct-18 19:08 37.653652 -122.424917 197 4803ft 244kts
31-Oct-18 19:09 37.581063 -122.441742 193 6442ft 296kts
31-Oct-18 19:10 37.499970 -122.461642 191 8756ft 315kts
31-Oct-18 19:11 37.434924 -122.405205 125 10018ft 311kts
31-Oct-18 19:12 37.380468 -122.326024 128 10011ft 313kts
31-Oct-18 19:13 37.322268 -122.246846 129 11337ft 343kts
31-Oct-18 19:14 37.260008 -122.162552 129 13411ft 359kts
31-Oct-18 19:15 37.194359 -122.073991 129 15476ft 368kts
31-Oct-18 19:16 37.124561 -121.980078 130 17613ft 379kts
31-Oct-18 19:17 37.055017 -121.886798 130 19481ft 390kts
31-Oct-18 19:18 36.982520 -121.789844 131 21189ft 402kts
31-Oct-18 19:19 36.906899 -121.689015 131 22803ft 412kts
31-Oct-18 19:20 36.827783 -121.583878 131 24215ft 422kts
31-Oct-18 19:21 36.746355 -121.476058 130 25491ft 433kts
31-Oct-18 19:22 36.663260 -121.366395 129 26704ft 441kts
31-Oct-18 19:23 36.578320 -121.254519 130 27779ft 450kts
31-Oct-18 19:24 36.491598 -121.140707 129 28814ft 457kts
31-Oct-18 19:25 36.405120 -121.024906 125 29900ft 458kts
31-Oct-18 19:26 36.322310 -120.905195 125 31044ft 458kts
31-Oct-18 19:27 36.240622 -120.788200 124 32111ft 457kts
31-Oct-18 19:27 36.171585 -120.689679 124 33010ft 455kts
31-Oct-18 19:29 36.075176 -120.552567 124 34096ft 454kts
31-Oct-18 19:30 35.994319 -120.438012 123 34942ft 453kts
31-Oct-18 19:30 35.926024 -120.341554 124 35613ft 453kts
31-Oct-18 19:31 35.835165 -120.233961 142 36229ft 468kts
31-Oct-18 19:33 35.705182 -120.137159 142 36844ft 471kts
31-Oct-18 19:33 35.612448 -120.067189 142 37151ft 476kts
31-Oct-18 19:34 35.499699 -119.982195 142 37153ft 486kts
31-Oct-18 19:35 35.386699 -119.897398 142 37080ft 487kts
31-Oct-18 19:36 35.274272 -119.811709 137 35500ft 473kts
31-Oct-18 19:37 35.171309 -119.714476 136 33788ft 473kts
31-Oct-18 19:38 35.067269 -119.617490 137 31915ft 471kts
31-Oct-18 19:39 34.965058 -119.522595 138 29997ft 464kts
31-Oct-18 19:40 34.862256 -119.428644 140 28055ft 465kts
31-Oct-18 19:41 34.760553 -119.337867 141 26036ft 448kts
31-Oct-18 19:42 34.662905 -119.252172 142 24033ft 431kts
31-Oct-18 19:43 34.570437 -119.172270 142 22103ft 419kts
31-Oct-18 19:44 34.480862 -119.093435 142 20123ft 399kts
31-Oct-18 19:45 34.394352 -119.017605 143 18157ft 385kts
31-Oct-18 19:46 34.309596 -118.943233 141 16171ft 373kts
31-Oct-18 19:47 34.229563 -118.870304 141 14170ft 352kts
31-Oct-18 19:48 34.154343 -118.800793 137 12191ft 337kts
31-Oct-18 19:49 34.086900 -118.725983 135 10200ft 323kts
31-Oct-18 19:50 34.032443 -118.651006 104 8890ft 284kts
31-Oct-18 19:51 34.020108 -118.560057 92 7936ft 275kts
31-Oct-18 19:52 34.011494 -118.470232 92 7011ft 265kts
31-Oct-18 19:53 34.020788 -118.392813 72 6162ft 227kts
31-Oct-18 19:54 34.026811 -118.318280 82 5304ft 225kts
31-Oct-18 19:55 34.031130 -118.247609 82 4445ft 214kts
31-Oct-18 19:56 34.036464 -118.177716 81 3565ft 211kts
31-Oct-18 19:57 34.026958 -118.116093 153 2709ft 203kts
31-Oct-18 19:58 33.983900 -118.133763 235 2617ft 191kts
31-Oct-18 19:59 33.973615 -118.194414 264 2609ft 188kts
31-Oct-18 20:00 33.967862 -118.249262 265 2600ft 167kts
31-Oct-18 20:01 33.962371 -118.302708 265 1750ft 146kts
31-Oct-18 20:02 33.957471 -118.350688 264 993ft 145kts
31-Oct-18 20:03 33.952477 -118.398709 264 230ft 145kts
31-Oct-18 20:04 33.949833 -118.423733 258 116ft 35kts
31-Oct-18 20:05 33.948197 -118.427163 220 111ft 11kts
31-Oct-18 20:06 33.946458 -118.425916 83 110ft 17kts
31-Oct-18 20:07 33.947175 -118.419094 82 119ft 21kts
31-Oct-18 20:08 33.947977 -118.412479 82 122ft 22kts
31-Oct-18 20:09 33.948578 -118.406698 83 119ft 15kts
31-Oct-18 20:10 33.948220 -118.405962 145 119ft 4kts
31-Oct-18 20:11 33.947696 -118.403859 175 119ft 4kts
31-Oct-18 20:12 33.947279 -118.403931 192 119ft 0kts
31-Oct-18 20:13 33.947279 -118.403931 192 119ft 0kts

Navigation Log

Ident Type
Flight plan parsing failed, navigation log unavailable